This is the latest recevied weather packets stored in our database for station/object DG6YGE-6. If no packets are shown the sender has not sent any weather packets the latest 10 day(s).
| Time | Temp. | Humidity | Pressure | Rain* | Wind** | Luminosity | Snow |
|---|---|---|---|---|---|---|---|
| 1788270551 | 18.89° C | 83% | 1017.6 hPa | 0 mm | - | 159 W/m² | - |
| 1788269951 | 18.89° C | 84% | 1017.7 hPa | 0 mm | - | 373 W/m² | - |
| 1788269352 | 18.33° C | 86% | 1017.6 hPa | 0 mm | - | 214 W/m² | - |
| 1788268751 | 17.78° C | 92% | 1017.7 hPa | 0 mm | - | 711 W/m² | - |
| 1788268161 | 17.78° C | 92% | 1017.7 hPa | 0 mm | - | 279 W/m² | - |
| 1788267551 | 17.78° C | 92% | 1017.8 hPa | 0 mm | - | 344 W/m² | - |
| 1788266951 | 17.22° C | 92% | 1017.8 hPa | 0 mm | - | 195 W/m² | - |
| 1788266352 | 17.22° C | 92% | 1017.9 hPa | 0 mm | - | 238 W/m² | - |
| 1788265752 | 17.22° C | 92% | 1017.8 hPa | 0.25 mm | - | 281 W/m² | - |
| 1788265151 | 17.22° C | 92% | 1017.8 hPa | 1.78 mm | - | 292 W/m² | - |
| 1788264552 | 17.22° C | 91% | 1017.8 hPa | 2.29 mm | - | 183 W/m² | - |
| 1788263951 | 17.22° C | 89% | 1017.8 hPa | 2.54 mm | - | 213 W/m² | - |
| 1788263351 | 17.22° C | 89% | 1017.8 hPa | 2.54 mm | - | 262 W/m² | - |
| 1788262751 | 17.22° C | 89% | 1017.9 hPa | 2.54 mm | - | 619 W/m² | - |
| 1788262151 | 17.78° C | 87% | 1017.9 hPa | 2.29 mm | - | 78 W/m² | - |
| 1788261551 | 18.33° C | 86% | 1017.8 hPa | 1.02 mm | - | 101 W/m² | - |
| 1788260951 | 18.89° C | 83% | 1017.7 hPa | 0.51 mm | - | 56 W/m² | - |
| 1788260352 | 18.89° C | 83% | 1017.6 hPa | 0 mm | - | 237 W/m² | - |
| 1788259751 | 18.89° C | 83% | 1017.7 hPa | 0 mm | - | 282 W/m² | - |
| 1788259151 | 18.89° C | 83% | 1017.6 hPa | 0 mm | - | 274 W/m² | - |
| 1788258551 | 18.33° C | 84% | 1017.5 hPa | 0 mm | - | 363 W/m² | - |
| 1788257951 | 18.33° C | 84% | 1017.6 hPa | 0 mm | - | 297 W/m² | - |
| 1788257351 | 18.89° C | 84% | 1017.7 hPa | 0 mm | - | 297 W/m² | - |
| 1788256752 | 18.89° C | 84% | 1017.5 hPa | 0 mm | - | 302 W/m² | - |
| 1788256151 | 18.33° C | 86% | 1017.6 hPa | 0 mm | - | 380 W/m² | - |
* Rain latest hour (hover to see other rain measurements)
** Current wind speed in m/s (hover to see current wind gust speed)